New York, New York
Traffic Map
Current Weather Conditions
New York, New York
Overcast Haze
Overcast
24°
Feels Like: 24°
Wind Chill: 24° Ceiling: 10000
Heat Index: 24° Visibility: 4mi
Dew Point: 22° Wind: 3mph
Humidity: 90% Direction: 80° (E)
Pressure: 29.89in Gusts: 0mph
Raw Report DataKNYC 290551Z AUTO 08003KT 4SM BR SCT046 SCT060 OVC100 24/22 A2989 RMK AO2 RAE37 SLP113 P0002 60002 T02390222 10267 20233 56004 $
Traffic Incident Summary
Active as of:
Severity:
Category:
InformationThere was an issue retrieving the traffic information for this location. Please try a different location or try again shortly.
Advertisements
Track Severe Weather on mobile